Jolyn — PJWG — position and weather

sailwx.info

Track history (hours):
 
Tides and Currents Weather Stations Pressure Air Temp Water Temp Dewpoint Dewpoint Depression Visibility Wind Speed Wind Dir Waves Ship Positions

Jolyn

Last reported at 2017-Aug-18 12:31 UTC. Time now 2017-Aug-18 12:45 UTC.
Position N 60°48' E 021°20'.

Length 90 m; draft 5.4 m.

Type: Cargo ship. MMSI: 306813000.

Date/timePositionNaut miles runAvg speedWind from/ knotsBaromVisibWave heightAir tempDewpointWater temp
2017-Aug-18 12:31N 60°48' E 021°20'0 0.0
2017-Aug-18 12:00N 60°48' E 021°20'0 0.0
2017-Aug-18 11:31N 60°48' E 021°20'0 0.0
2017-Aug-18 11:01N 60°48' E 021°20'0 0.0
2017-Aug-18 10:30N 60°48' E 021°20'0 0.0
2017-Aug-18 10:00N 60°48' E 021°20'0 0.0
2017-Aug-18 09:30N 60°48' E 021°20'0 0.0
2017-Aug-18 09:00N 60°48' E 021°20'0 0.0
2017-Aug-18 08:31N 60°48' E 021°20'0 0.0
2017-Aug-18 08:01N 60°48' E 021°20'0 0.0
2017-Aug-18 07:30N 60°48' E 021°20'0 0.0
2017-Aug-18 07:00N 60°48' E 021°20'0 0.0
2017-Aug-18 06:30N 60°48' E 021°20'0 0.0
2017-Aug-18 06:01N 60°48' E 021°20'0 0.0
2017-Aug-18 05:31N 60°48' E 021°20'0 0.0
2017-Aug-18 05:01N 60°48' E 021°20'0 0.0
2017-Aug-18 04:31N 60°48' E 021°20'2 4.2
2017-Aug-18 04:00N 60°48' E 021°16'4 8.9
2017-Aug-18 03:30N 60°44' E 021°10'5 9.8
2017-Aug-18 03:01N 60°42' E 021°01'3 6.7
2017-Aug-18 02:30N 60°42' E 020°54'3 6.2
2017-Aug-18 02:01N 60°42' E 020°48'3 6.2
2017-Aug-18 01:30N 60°42' E 020°41'3 6.2
2017-Aug-18 01:00N 60°41' E 020°35'3 6.2
2017-Aug-18 00:31N 60°41' E 020°29'3 6.2
2017-Aug-18 00:00N 60°40' E 020°23'3 6.2
2017-Aug-17 23:30N 60°39' E 020°17'3 6.3
2017-Aug-17 23:00N 60°38' E 020°11'3 6.2
2017-Aug-17 22:30N 60°37' E 020°05'3 6.2
2017-Aug-17 22:00N 60°36' E 019°58'3 6.4
2017-Aug-17 21:30N 60°36' E 019°52'4 7.3
2017-Aug-17 21:00N 60°35' E 019°45'3 5.9
2017-Aug-17 20:30N 60°34' E 019°39'4 7.0
2017-Aug-17 20:00N 60°33' E 019°32'3 6.5
2017-Aug-17 19:31N 60°32' E 019°26'3 6.9
2017-Aug-17 19:01N 60°32' E 019°19'4 7.1
2017-Aug-17 18:30N 60°31' E 019°12'3 6.5
2017-Aug-17 18:00N 60°30' E 019°05'4 7.6
2017-Aug-17 17:30N 60°27' E 019°02'5 9.5
2017-Aug-17 17:00N 60°22' E 019°01'4 8.1
2017-Aug-17 16:31N 60°18' E 019°01'5 9.1
2017-Aug-17 16:00N 60°13' E 019°04'4 8.4
2017-Aug-17 15:31N 60°10' E 019°08'4 8.9
2017-Aug-17 15:00N 60°06' E 019°14'5 9.1
2017-Aug-17 14:30N 60°03' E 019°20'510.5
2017-Aug-17 14:00N 59°59' E 019°26'5 9.1
2017-Aug-17 13:30N 59°55' E 019°32'4 8.5
2017-Aug-17 13:01N 59°52' E 019°37'5 9.0
2017-Aug-17 12:30N 59°48' E 019°43'4 8.2
2017-Aug-17 12:00N 59°45' E 019°48'4 8.8
2017-Aug-17 11:31N 59°42' E 019°55'4 8.9
2017-Aug-17 11:00N 59°39' E 020°00'5 9.4
2017-Aug-17 10:30N 59°36' E 020°07'4 8.0
2017-Aug-17 10:00N 59°32' E 020°09'4 8.1
2017-Aug-17 09:31N 59°28' E 020°07'4 8.3
2017-Aug-17 09:00N 59°24' E 020°02'4 8.5
2017-Aug-17 08:31N 59°21' E 019°58'4 8.7
2017-Aug-17 08:00N 59°17' E 019°53'4 8.6
2017-Aug-17 07:31N 59°13' E 019°49'4 8.3
2017-Aug-17 07:00N 59°10' E 019°45'4 8.5
2017-Aug-17 06:30N 59°06' E 019°41'4 8.5
2017-Aug-17 06:01N 59°02' E 019°36'5 9.2
2017-Aug-17 05:30N 58°59' E 019°32'5 9.2
2017-Aug-17 05:01N 58°55' E 019°27'5 9.3
2017-Aug-17 04:31N 58°51' E 019°23'5 9.5
2017-Aug-17 04:00N 58°47' E 019°18'5 9.6
2017-Aug-17 03:31N 58°42' E 019°13'5 9.7
2017-Aug-17 03:00N 58°38' E 019°08'5 9.7
2017-Aug-17 02:30N 58°34' E 019°03'5 9.5
2017-Aug-17 01:59N 58°30' E 018°59'5 9.5
2017-Aug-17 01:31N 58°26' E 018°54'5 9.6
2017-Aug-17 00:58N 58°22' E 018°49'4 9.5
2017-Aug-17 00:31N 58°18' E 018°44'5 9.6
2017-Aug-17 00:00N 58°14' E 018°39'5 9.5
2017-Aug-16 23:30N 58°10' E 018°34'5 9.6
2017-Aug-16 23:01N 58°06' E 018°29'5 9.5
2017-Aug-16 22:28N 58°02' E 018°24'4 9.4
2017-Aug-16 22:00N 57°58' E 018°20'6 9.5
2017-Aug-16 21:23N 57°53' E 018°14'99 9.3
2017-Aug-16 10:39N 56°22' E 017°01'1 9.2
2017-Aug-16 10:30N 56°20' E 017°00'5 9.3
2017-Aug-16 10:00N 56°16' E 016°57'5 9.4
2017-Aug-16 09:30N 56°12' E 016°53'5 9.4
2017-Aug-16 09:00N 56°08' E 016°50'5 9.1
2017-Aug-16 08:30N 56°04' E 016°45'5 9.4
2017-Aug-16 08:00N 56°01' E 016°38'5 9.6
2017-Aug-16 07:30N 55°59' E 016°31'510.0
2017-Aug-16 07:00N 55°56' E 016°23'510.1
2017-Aug-16 06:30N 55°54' E 016°15'510.0
2017-Aug-16 06:00N 55°51' E 016°08'510.2
2017-Aug-16 05:30N 55°49' E 015°60'510.2
2017-Aug-16 05:00N 55°46' E 015°52'510.3
2017-Aug-16 04:30N 55°44' E 015°44'510.3
2017-Aug-16 04:00N 55°41' E 015°36'510.3
2017-Aug-16 03:30N 55°39' E 015°28'510.3
2017-Aug-16 03:00N 55°36' E 015°20'510.3
2017-Aug-16 02:30N 55°34' E 015°12'510.3
2017-Aug-16 02:00N 55°31' E 015°04'510.1
2017-Aug-16 01:30N 55°29' E 014°56'510.3
2017-Aug-16 01:00N 55°27' E 014°48'510.2
2017-Aug-16 00:30N 55°24' E 014°40'510.3
2017-Aug-16 00:00N 55°20' E 014°34'510.5
2017-Aug-15 23:30N 55°16' E 014°29'510.2
2017-Aug-15 23:00N 55°12' E 014°23'510.2
2017-Aug-15 22:30N 55°08' E 014°17'510.3
2017-Aug-15 22:00N 55°04' E 014°11'5 9.8
2017-Aug-15 21:30N 55°02' E 014°03'5 9.9
2017-Aug-15 21:00N 55°00' E 013°55'5 9.8
2017-Aug-15 20:30N 54°59' E 013°47'5 9.7
2017-Aug-15 20:00N 54°57' E 013°39'5 9.5
2017-Aug-15 19:30N 54°55' E 013°32'5 9.4
2017-Aug-15 19:00N 54°54' E 013°24'5 9.4
2017-Aug-15 18:30N 54°52' E 013°16'5 9.5
2017-Aug-15 18:00N 54°50' E 013°08'5 9.6
2017-Aug-15 17:30N 54°48' E 013°01'5 9.5
2017-Aug-15 17:00N 54°45' E 012°54'5 9.4
2017-Aug-15 16:30N 54°43' E 012°48'5 9.4
2017-Aug-15 16:00N 54°40' E 012°41'5 9.3
2017-Aug-15 15:30N 54°38' E 012°34'11 9.5
2017-Aug-15 14:17N 54°32' E 012°17'3 9.6
2017-Aug-15 14:00N 54°29' E 012°15'5 9.8
2017-Aug-15 13:30N 54°25' E 012°11'5 9.1
2017-Aug-15 13:00N 54°24' E 012°03'5 9.3
2017-Aug-15 12:30N 54°22' E 011°56'510.1
2017-Aug-15 12:00N 54°18' E 011°50'610.3
2017-Aug-15 11:24N 54°14' E 011°42'13 9.7
2017-Aug-15 10:03N 54°05' E 011°26'0 8.0
2017-Aug-15 10:00N 54°04' E 011°26'4 8.8
2017-Aug-15 09:30N 54°01' E 011°21'4 7.7
2017-Aug-15 09:00N 53°58' E 011°23'4 8.2
2017-Aug-15 08:30N 53°54' E 011°27'0 0.7
2017-Aug-15 07:59N 53°54' E 011°28'0 0.0
2017-Aug-15 07:23N 53°54' E 011°28'0 0.0
2017-Aug-15 06:59N 53°54' E 011°28'0 0.0
2017-Aug-15 06:29N 53°54' E 011°28'0 0.0
2017-Aug-15 05:59N 53°54' E 011°28'0 0.0
2017-Aug-15 05:29N 53°54' E 011°28'0 0.0
2017-Aug-15 04:59N 53°54' E 011°28'0 0.0
2017-Aug-15 04:29N 53°54' E 011°28'0 0.0
2017-Aug-15 03:59N 53°54' E 011°28'0 0.0
2017-Aug-15 03:29N 53°54' E 011°28'0 0.0
2017-Aug-15 02:59N 53°54' E 011°28'0 0.0
2017-Aug-15 02:29N 53°54' E 011°28'0 0.0
2017-Aug-15 01:59N 53°54' E 011°28'0 0.0
2017-Aug-15 01:29N 53°54' E 011°28'0 0.0
2017-Aug-15 00:59N 53°54' E 011°28'0 0.0
2017-Aug-15 00:29N 53°54' E 011°28'0 0.0
2017-Aug-14 23:59N 53°54' E 011°28'0 0.0
2017-Aug-14 23:29N 53°54' E 011°28'0 0.0
2017-Aug-14 22:59N 53°54' E 011°28'0 0.0
2017-Aug-14 22:29N 53°54' E 011°28'0 0.0
2017-Aug-14 21:59N 53°54' E 011°28'0 0.0
2017-Aug-14 21:29N 53°54' E 011°28'0 0.0
2017-Aug-14 20:59N 53°54' E 011°28'0 0.0
2017-Aug-14 20:29N 53°54' E 011°28'0 0.0
2017-Aug-14 19:59N 53°54' E 011°28'0 0.0
2017-Aug-14 19:29N 53°54' E 011°28'0 0.0
2017-Aug-14 18:59N 53°54' E 011°28'0 0.0
2017-Aug-14 18:29N 53°54' E 011°28'0 0.0
2017-Aug-14 17:59N 53°54' E 011°28'0 0.0
2017-Aug-14 17:29N 53°54' E 011°28'0 0.0
2017-Aug-14 16:59N 53°54' E 011°28'0 0.0
2017-Aug-14 16:29N 53°54' E 011°28'0 0.0
2017-Aug-14 15:59N 53°54' E 011°28'0 0.0
2017-Aug-14 15:29N 53°54' E 011°28'0 0.0
2017-Aug-14 14:59N 53°54' E 011°28'0 0.0
2017-Aug-14 14:29N 53°54' E 011°28'0 0.0
2017-Aug-14 13:59N 53°54' E 011°28'0 0.0
2017-Aug-14 13:26N 53°54' E 011°28'0 0.0
2017-Aug-14 12:56N 53°54' E 011°28'0 0.0
2017-Aug-14 12:29N 53°54' E 011°28'0 0.0
2017-Aug-14 11:59N 53°54' E 011°28'0 0.0
2017-Aug-14 11:29N 53°54' E 011°28'0 0.0
2017-Aug-14 10:59N 53°54' E 011°28'0 0.0
2017-Aug-14 10:29N 53°54' E 011°28'0 0.0
2017-Aug-14 09:59N 53°54' E 011°28'0 0.0
2017-Aug-14 09:29N 53°54' E 011°28'0 0.0
2017-Aug-14 08:59N 53°54' E 011°28'0 0.0
2017-Aug-14 08:29N 53°54' E 011°28'0 0.0
2017-Aug-14 07:59N 53°54' E 011°28'0 0.0
2017-Aug-14 07:29N 53°54' E 011°28'0 0.0
2017-Aug-14 06:59N 53°54' E 011°28'0 0.0
2017-Aug-14 06:29N 53°54' E 011°28'0 0.0
2017-Aug-14 05:59N 53°54' E 011°28'0 0.0
2017-Aug-14 05:29N 53°54' E 011°28'0 0.0
2017-Aug-14 04:59N 53°54' E 011°28'0 0.0
2017-Aug-14 04:29N 53°54' E 011°28'0 0.0
2017-Aug-14 03:59N 53°54' E 011°28'0 0.0
2017-Aug-14 03:26N 53°54' E 011°28'0 0.0
2017-Aug-14 02:59N 53°54' E 011°28'0 0.0
2017-Aug-14 02:29N 53°54' E 011°28'0 0.0
2017-Aug-14 01:59N 53°54' E 011°28'0 0.0
2017-Aug-14 01:29N 53°54' E 011°28'0 0.0
2017-Aug-14 00:59N 53°54' E 011°28'0 0.0
2017-Aug-14 00:29N 53°54' E 011°28'0 0.0
2017-Aug-13 23:59N 53°54' E 011°28'0 0.0
2017-Aug-13 23:29N 53°54' E 011°28'0 0.0
2017-Aug-13 22:59N 53°54' E 011°28'0 0.0
2017-Aug-13 22:29N 53°54' E 011°28'0 0.0
2017-Aug-13 21:59N 53°54' E 011°28'0 0.0
2017-Aug-13 21:29N 53°54' E 011°28'0 0.0
2017-Aug-13 20:59N 53°54' E 011°28'0 0.0
2017-Aug-13 20:29N 53°54' E 011°28'0 0.0
2017-Aug-13 19:53N 53°54' E 011°28'0 0.0
2017-Aug-13 19:29N 53°54' E 011°28'0 0.0
2017-Aug-13 18:59N 53°54' E 011°28'0 0.0
2017-Aug-13 18:29N 53°54' E 011°28'0 0.0
2017-Aug-13 17:59N 53°54' E 011°28'0 0.0
2017-Aug-13 17:29N 53°54' E 011°28'0 0.0
2017-Aug-13 16:59N 53°54' E 011°28'0 0.0
2017-Aug-13 16:29N 53°54' E 011°28'0 0.0
2017-Aug-13 15:59N 53°54' E 011°28'0 0.0
2017-Aug-13 15:29N 53°54' E 011°28'0 0.0
2017-Aug-13 14:59N 53°54' E 011°28'1 1.4
2017-Aug-13 14:31N 53°54' E 011°27'5 9.3
2017-Aug-13 14:00N 53°58' E 011°22'4 7.9
2017-Aug-13 13:31N 54°02' E 011°24'510.2
2017-Aug-13 13:00N 54°06' E 011°28'611.4
2017-Aug-13 12:31N 54°10' E 011°35'1411.2
2017-Aug-13 11:18N 54°18' E 011°54'310.8
2017-Aug-13 11:01N 54°20' E 011°58'611.0
2017-Aug-13 10:30N 54°23' E 012°06'1411.0
2017-Aug-13 09:17N 54°35' E 012°15'311.0
2017-Aug-13 09:00N 54°38' E 012°18'611.3
2017-Aug-13 08:31N 54°41' E 012°26'4111.1
2017-Aug-13 04:48N 54°57' E 013°32'310.8
2017-Aug-13 04:30N 54°58' E 013°37'510.8
2017-Aug-13 04:00N 54°60' E 013°46'510.8
2017-Aug-13 03:30N 55°02' E 013°55'510.5
2017-Aug-13 03:00N 55°03' E 014°03'510.0
2017-Aug-13 02:30N 55°07' E 014°10'510.3
2017-Aug-13 02:00N 55°11' E 014°15'510.3
2017-Aug-13 01:30N 55°15' E 014°20'510.4
2017-Aug-13 01:00N 55°19' E 014°25'510.4
2017-Aug-13 00:30N 55°23' E 014°31'510.7
2017-Aug-13 00:00N 55°27' E 014°39'511.0
2017-Aug-12 23:30N 55°30' E 014°47'510.8
2017-Aug-12 23:00N 55°32' E 014°55'510.7
2017-Aug-12 22:30N 55°35' E 015°03'510.6
2017-Aug-12 22:00N 55°38' E 015°11'15810.4
2017-Aug-12 06:46N 57°44' E 018°05'311.9
2017-Aug-12 06:30N 57°46' E 018°08'611.8
2017-Aug-12 06:00N 57°51' E 018°15'611.6
2017-Aug-12 05:30N 57°55' E 018°22'611.7
2017-Aug-12 05:00N 58°00' E 018°29'611.7
2017-Aug-12 04:30N 58°05' E 018°36'611.8
2017-Aug-12 04:00N 58°09' E 018°43'611.9
2017-Aug-12 03:30N 58°14' E 018°50'611.5
2017-Aug-12 03:00N 58°18' E 018°57'611.5
2017-Aug-12 02:30N 58°23' E 019°03'611.4
2017-Aug-12 02:00N 58°27' E 019°10'611.5
2017-Aug-12 01:30N 58°31' E 019°18'611.5
2017-Aug-12 01:00N 58°36' E 019°25'611.4
2017-Aug-12 00:30N 58°40' E 019°33'611.5
2017-Aug-12 00:00N 58°44' E 019°40'611.5
2017-Aug-11 23:30N 58°49' E 019°47'611.6
2017-Aug-11 23:00N 58°53' E 019°54'611.6
2017-Aug-11 22:30N 58°57' E 020°02'611.6
2017-Aug-11 22:00N 59°02' E 020°09'611.4
2017-Aug-11 21:30N 59°06' E 020°17'611.4
2017-Aug-11 21:00N 59°10' E 020°24'611.6
2017-Aug-11 20:30N 59°15' E 020°31'611.1
2017-Aug-11 20:00N 59°19' E 020°38'612.0
2017-Aug-11 19:30N 59°23' E 020°46'611.6
2017-Aug-11 19:00N 59°28' E 020°54'510.3
2017-Aug-11 18:31N 59°31' E 021°01'510.7
2017-Aug-11 18:01N 59°35' E 021°08'611.3
2017-Aug-11 17:31N 59°39' E 021°15'611.1
2017-Aug-11 17:00N 59°44' E 021°20'510.7
2017-Aug-11 16:31N 59°50' E 021°22'611.0
2017-Aug-11 16:01N 59°53' E 021°31'612.4
2017-Aug-11 15:30N 59°57' E 021°40'510.7
2017-Aug-11 15:00N 60°02' E 021°41'5 9.6
2017-Aug-11 14:30N 60°07' E 021°41'10 9.9
2017-Aug-11 13:30N 60°15' E 021°53'510.7
2017-Aug-11 13:00N 60°18' E 022°02'510.8
2017-Aug-11 12:30N 60°23' E 022°06'4 8.8
2017-Aug-11 12:00N 60°26' E 022°13'0 0.0
2017-Aug-11 11:29N 60°26' E 022°13'0 0.0
2017-Aug-11 11:00N 60°26' E 022°13'0 0.0
2017-Aug-11 10:29N 60°26' E 022°13'0 0.0
2017-Aug-11 09:56N 60°26' E 022°13'0 0.0
2017-Aug-11 09:23N 60°26' E 022°13'0 0.0
2017-Aug-11 08:56N 60°26' E 022°13'0 0.0
2017-Aug-11 08:26N 60°26' E 022°13'0 0.0
2017-Aug-11 07:56N 60°26' E 022°13'0 0.0
2017-Aug-11 07:26N 60°26' E 022°13'0 0.0
2017-Aug-11 06:59N 60°26' E 022°13'0 0.0
2017-Aug-11 06:26N 60°26' E 022°13'0 0.0
2017-Aug-11 05:59N 60°26' E 022°13'0 0.0
2017-Aug-11 05:29N 60°26' E 022°13'0 0.0
2017-Aug-11 04:56N 60°26' E 022°13'0 0.0
2017-Aug-11 04:29N 60°26' E 022°13'0 0.0
2017-Aug-11 03:59N 60°26' E 022°13'0 0.0
2017-Aug-11 03:29N 60°26' E 022°13'0 0.0
2017-Aug-11 02:56N 60°26' E 022°13'0 0.0
2017-Aug-11 02:29N 60°26' E 022°13'0 0.0
2017-Aug-11 01:56N 60°26' E 022°13'0 0.0
2017-Aug-11 01:26N 60°26' E 022°13'0 0.0
2017-Aug-11 00:59N 60°26' E 022°13'0 0.0
2017-Aug-11 00:29N 60°26' E 022°13'0 0.0
2017-Aug-10 23:59N 60°26' E 022°13'0 0.2
2017-Aug-10 23:30N 60°26' E 022°13'3 5.4
2017-Aug-10 23:00N 60°25' E 022°08'611.1
2017-Aug-10 22:30N 60°20' E 022°04'510.8
2017-Aug-10 22:00N 60°16' E 021°56'611.5
2017-Aug-10 21:30N 60°14' E 021°45'510.0
2017-Aug-10 21:00N 60°09' E 021°42'510.9
2017-Aug-10 20:30N 60°04' E 021°41'611.3
2017-Aug-10 20:00N 59°58' E 021°42'611.3
2017-Aug-10 19:30N 59°54' E 021°34'611.4
2017-Aug-10 19:00N 59°51' E 021°25'510.1
2017-Aug-10 18:30N 59°46' E 021°21'510.5
2017-Aug-10 18:00N 59°41' E 021°18'511.0
2017-Aug-10 17:30N 59°37' E 021°11'611.2
2017-Aug-10 17:00N 59°33' E 021°04'611.5
2017-Aug-10 16:30N 59°29' E 020°56'611.6
2017-Aug-10 16:00N 59°24' E 020°48'611.5
2017-Aug-10 15:30N 59°20' E 020°41'611.5
2017-Aug-10 15:00N 59°16' E 020°33'611.7
2017-Aug-10 14:30N 59°12' E 020°25'611.7
2017-Aug-10 14:00N 59°07' E 020°18'611.5
2017-Aug-10 13:30N 59°03' E 020°10'611.6
2017-Aug-10 13:00N 58°59' E 020°03'611.5
2017-Aug-10 12:30N 58°55' E 019°55'611.5
2017-Aug-10 12:00N 58°50' E 019°47'711.5
2017-Aug-10 11:24N 58°45' E 019°38'711.4
2017-Aug-10 10:45N 58°40' E 019°28'411.6
2017-Aug-10 10:24N 58°37' E 019°23'511.6
2017-Aug-10 10:00N 58°34' E 019°17'611.6
2017-Aug-10 09:30N 58°29' E 019°10'611.7
2017-Aug-10 09:00N 58°25' E 019°02'611.7
2017-Aug-10 08:30N 58°20' E 018°56'711.6
2017-Aug-10 07:56N 58°15' E 018°48'811.2
2017-Aug-10 07:14N 58°09' E 018°39'311.0
2017-Aug-10 07:00N 58°06' E 018°36'16711.0
2017-Aug-09 15:50N 55°46' E 015°51'411.4
2017-Aug-09 15:29N 55°44' E 015°45'511.5
2017-Aug-09 15:00N 55°41' E 015°36'611.8
2017-Aug-09 14:29N 55°39' E 015°27'711.8
2017-Aug-09 13:55N 55°35' E 015°16'511.6
2017-Aug-09 13:30N 55°33' E 015°09'611.6
2017-Aug-09 13:00N 55°30' E 015°00'611.6
2017-Aug-09 12:30N 55°27' E 014°52'611.5
2017-Aug-09 12:00N 55°24' E 014°43'611.1
2017-Aug-09 11:30N 55°21' E 014°35'611.3
2017-Aug-09 11:00N 55°16' E 014°29'611.2
2017-Aug-09 10:30N 55°12' E 014°23'611.3
2017-Aug-09 10:00N 55°07' E 014°17'611.4
2017-Aug-09 09:30N 55°03' E 014°10'611.5
2017-Aug-09 09:00N 55°00' E 014°02'611.6
2017-Aug-09 08:30N 54°58' E 013°52'611.7
2017-Aug-09 07:59N 54°56' E 013°42'611.7
2017-Aug-09 07:30N 54°54' E 013°33'611.3
2017-Aug-09 07:00N 54°52' E 013°24'4 7.6
2017-Aug-09 06:30N 54°51' E 013°17'10 8.4
2017-Aug-09 05:18N 54°47' E 013°02'310.3
2017-Aug-09 05:00N 54°45' E 012°57'710.3
2017-Aug-09 04:19N 54°42' E 012°46'310.2
2017-Aug-09 04:00N 54°40' E 012°42'1010.4
2017-Aug-09 03:03N 54°35' E 012°27'010.4
2017-Aug-09 03:00N 54°35' E 012°26'610.5
2017-Aug-09 02:28N 54°32' E 012°18'13 9.0
2017-Aug-09 01:02N 54°25' E 011°60'0 9.8
2017-Aug-09 01:00N 54°25' E 011°59'5 9.7
2017-Aug-09 00:30N 54°25' E 011°51'5 9.7
2017-Aug-09 00:00N 54°26' E 011°43'5 9.8
2017-Aug-08 23:30N 54°28' E 011°35'5 9.7
2017-Aug-08 23:00N 54°30' E 011°28'5 9.4
2017-Aug-08 22:30N 54°32' E 011°21'5 9.1
2017-Aug-08 22:00N 54°34' E 011°13'4 9.0
2017-Aug-08 21:30N 54°35' E 011°06'5 9.8
2017-Aug-08 21:00N 54°36' E 010°58'510.2
2017-Aug-08 20:30N 54°37' E 010°49'510.1
2017-Aug-08 20:00N 54°38' E 010°40'510.0
2017-Aug-08 19:30N 54°39' E 010°32'5 9.6
2017-Aug-08 19:00N 54°40' E 010°24'5 9.6
2017-Aug-08 18:30N 54°43' E 010°18'510.1
2017-Aug-08 18:00N 54°48' E 010°13'  
Track history (hours):
 
Tides and Currents Weather Stations Pressure Air Temp Water Temp Dewpoint Dewpoint Depression Visibility Wind Speed Wind Dir Waves Ship Positions

Jolyn

Last reported at 2017-Aug-18 12:31 UTC. Time now 2017-Aug-18 12:45 UTC.
Position N 60°48' E 021°20'.

Length 90 m; draft 5.4 m.

Type: Cargo ship. MMSI: 306813000.

Date/timePositionNaut miles runAvg speedWind from/ knotsBaromVisibWave heightAir tempDewpointWater temp
2017-Aug-18 12:31N 60°48' E 021°20'0 0.0
2017-Aug-18 12:00N 60°48' E 021°20'0 0.0
2017-Aug-18 11:31N 60°48' E 021°20'0 0.0
2017-Aug-18 11:01N 60°48' E 021°20'0 0.0
2017-Aug-18 10:30N 60°48' E 021°20'0 0.0
2017-Aug-18 10:00N 60°48' E 021°20'0 0.0
2017-Aug-18 09:30N 60°48' E 021°20'0 0.0
2017-Aug-18 09:00N 60°48' E 021°20'0 0.0
2017-Aug-18 08:31N 60°48' E 021°20'0 0.0
2017-Aug-18 08:01N 60°48' E 021°20'0 0.0
2017-Aug-18 07:30N 60°48' E 021°20'0 0.0
2017-Aug-18 07:00N 60°48' E 021°20'0 0.0
2017-Aug-18 06:30N 60°48' E 021°20'0 0.0
2017-Aug-18 06:01N 60°48' E 021°20'0 0.0
2017-Aug-18 05:31N 60°48' E 021°20'0 0.0
2017-Aug-18 05:01N 60°48' E 021°20'0 0.0
2017-Aug-18 04:31N 60°48' E 021°20'2 4.2
2017-Aug-18 04:00N 60°48' E 021°16'4 8.9
2017-Aug-18 03:30N 60°44' E 021°10'5 9.8
2017-Aug-18 03:01N 60°42' E 021°01'3 6.7
2017-Aug-18 02:30N 60°42' E 020°54'3 6.2
2017-Aug-18 02:01N 60°42' E 020°48'3 6.2
2017-Aug-18 01:30N 60°42' E 020°41'3 6.2
2017-Aug-18 01:00N 60°41' E 020°35'3 6.2
2017-Aug-18 00:31N 60°41' E 020°29'3 6.2
2017-Aug-18 00:00N 60°40' E 020°23'3 6.2
2017-Aug-17 23:30N 60°39' E 020°17'3 6.3
2017-Aug-17 23:00N 60°38' E 020°11'3 6.2
2017-Aug-17 22:30N 60°37' E 020°05'3 6.2
2017-Aug-17 22:00N 60°36' E 019°58'3 6.4
2017-Aug-17 21:30N 60°36' E 019°52'4 7.3
2017-Aug-17 21:00N 60°35' E 019°45'3 5.9
2017-Aug-17 20:30N 60°34' E 019°39'4 7.0
2017-Aug-17 20:00N 60°33' E 019°32'3 6.5
2017-Aug-17 19:31N 60°32' E 019°26'3 6.9
2017-Aug-17 19:01N 60°32' E 019°19'4 7.1
2017-Aug-17 18:30N 60°31' E 019°12'3 6.5
2017-Aug-17 18:00N 60°30' E 019°05'4 7.6
2017-Aug-17 17:30N 60°27' E 019°02'5 9.5
2017-Aug-17 17:00N 60°22' E 019°01'4 8.1
2017-Aug-17 16:31N 60°18' E 019°01'5 9.1
2017-Aug-17 16:00N 60°13' E 019°04'4 8.4
2017-Aug-17 15:31N 60°10' E 019°08'4 8.9
2017-Aug-17 15:00N 60°06' E 019°14'5 9.1
2017-Aug-17 14:30N 60°03' E 019°20'510.5
2017-Aug-17 14:00N 59°59' E 019°26'5 9.1
2017-Aug-17 13:30N 59°55' E 019°32'4 8.5
2017-Aug-17 13:01N 59°52' E 019°37'5 9.0
2017-Aug-17 12:30N 59°48' E 019°43'4 8.2
2017-Aug-17 12:00N 59°45' E 019°48'4 8.8
2017-Aug-17 11:31N 59°42' E 019°55'4 8.9
2017-Aug-17 11:00N 59°39' E 020°00'5 9.4
2017-Aug-17 10:30N 59°36' E 020°07'4 8.0
2017-Aug-17 10:00N 59°32' E 020°09'4 8.1
2017-Aug-17 09:31N 59°28' E 020°07'4 8.3
2017-Aug-17 09:00N 59°24' E 020°02'4 8.5
2017-Aug-17 08:31N 59°21' E 019°58'4 8.7
2017-Aug-17 08:00N 59°17' E 019°53'4 8.6
2017-Aug-17 07:31N 59°13' E 019°49'4 8.3
2017-Aug-17 07:00N 59°10' E 019°45'4 8.5
2017-Aug-17 06:30N 59°06' E 019°41'4 8.5
2017-Aug-17 06:01N 59°02' E 019°36'5 9.2
2017-Aug-17 05:30N 58°59' E 019°32'5 9.2
2017-Aug-17 05:01N 58°55' E 019°27'5 9.3
2017-Aug-17 04:31N 58°51' E 019°23'5 9.5
2017-Aug-17 04:00N 58°47' E 019°18'5 9.6
2017-Aug-17 03:31N 58°42' E 019°13'5 9.7
2017-Aug-17 03:00N 58°38' E 019°08'5 9.7
2017-Aug-17 02:30N 58°34' E 019°03'5 9.5
2017-Aug-17 01:59N 58°30' E 018°59'5 9.5
2017-Aug-17 01:31N 58°26' E 018°54'5 9.6
2017-Aug-17 00:58N 58°22' E 018°49'4 9.5
2017-Aug-17 00:31N 58°18' E 018°44'5 9.6
2017-Aug-17 00:00N 58°14' E 018°39'5 9.5
2017-Aug-16 23:30N 58°10' E 018°34'5 9.6
2017-Aug-16 23:01N 58°06' E 018°29'5 9.5
2017-Aug-16 22:28N 58°02' E 018°24'4 9.4
2017-Aug-16 22:00N 57°58' E 018°20'6 9.5
2017-Aug-16 21:23N 57°53' E 018°14'99 9.3
2017-Aug-16 10:39N 56°22' E 017°01'1 9.2
2017-Aug-16 10:30N 56°20' E 017°00'5 9.3
2017-Aug-16 10:00N 56°16' E 016°57'5 9.4
2017-Aug-16 09:30N 56°12' E 016°53'5 9.4
2017-Aug-16 09:00N 56°08' E 016°50'5 9.1
2017-Aug-16 08:30N 56°04' E 016°45'5 9.4
2017-Aug-16 08:00N 56°01' E 016°38'5 9.6
2017-Aug-16 07:30N 55°59' E 016°31'510.0
2017-Aug-16 07:00N 55°56' E 016°23'510.1
2017-Aug-16 06:30N 55°54' E 016°15'510.0
2017-Aug-16 06:00N 55°51' E 016°08'510.2
2017-Aug-16 05:30N 55°49' E 015°60'510.2
2017-Aug-16 05:00N 55°46' E 015°52'510.3
2017-Aug-16 04:30N 55°44' E 015°44'510.3
2017-Aug-16 04:00N 55°41' E 015°36'510.3
2017-Aug-16 03:30N 55°39' E 015°28'510.3
2017-Aug-16 03:00N 55°36' E 015°20'510.3
2017-Aug-16 02:30N 55°34' E 015°12'510.3
2017-Aug-16 02:00N 55°31' E 015°04'510.1
2017-Aug-16 01:30N 55°29' E 014°56'510.3
2017-Aug-16 01:00N 55°27' E 014°48'510.2
2017-Aug-16 00:30N 55°24' E 014°40'510.3
2017-Aug-16 00:00N 55°20' E 014°34'510.5
2017-Aug-15 23:30N 55°16' E 014°29'510.2
2017-Aug-15 23:00N 55°12' E 014°23'510.2
2017-Aug-15 22:30N 55°08' E 014°17'510.3
2017-Aug-15 22:00N 55°04' E 014°11'5 9.8
2017-Aug-15 21:30N 55°02' E 014°03'5 9.9
2017-Aug-15 21:00N 55°00' E 013°55'5 9.8
2017-Aug-15 20:30N 54°59' E 013°47'5 9.7
2017-Aug-15 20:00N 54°57' E 013°39'5 9.5
2017-Aug-15 19:30N 54°55' E 013°32'5 9.4
2017-Aug-15 19:00N 54°54' E 013°24'5 9.4
2017-Aug-15 18:30N 54°52' E 013°16'5 9.5
2017-Aug-15 18:00N 54°50' E 013°08'5 9.6
2017-Aug-15 17:30N 54°48' E 013°01'5 9.5
2017-Aug-15 17:00N 54°45' E 012°54'5 9.4
2017-Aug-15 16:30N 54°43' E 012°48'5 9.4
2017-Aug-15 16:00N 54°40' E 012°41'5 9.3
2017-Aug-15 15:30N 54°38' E 012°34'11 9.5
2017-Aug-15 14:17N 54°32' E 012°17'3 9.6
2017-Aug-15 14:00N 54°29' E 012°15'5 9.8
2017-Aug-15 13:30N 54°25' E 012°11'5 9.1
2017-Aug-15 13:00N 54°24' E 012°03'5 9.3
2017-Aug-15 12:30N 54°22' E 011°56'510.1
2017-Aug-15 12:00N 54°18' E 011°50'610.3
2017-Aug-15 11:24N 54°14' E 011°42'13 9.7
2017-Aug-15 10:03N 54°05' E 011°26'0 8.0
2017-Aug-15 10:00N 54°04' E 011°26'4 8.8
2017-Aug-15 09:30N 54°01' E 011°21'4 7.7
2017-Aug-15 09:00N 53°58' E 011°23'4 8.2
2017-Aug-15 08:30N 53°54' E 011°27'0 0.7
2017-Aug-15 07:59N 53°54' E 011°28'0 0.0
2017-Aug-15 07:23N 53°54' E 011°28'0 0.0
2017-Aug-15 06:59N 53°54' E 011°28'0 0.0
2017-Aug-15 06:29N 53°54' E 011°28'0 0.0
2017-Aug-15 05:59N 53°54' E 011°28'0 0.0
2017-Aug-15 05:29N 53°54' E 011°28'0 0.0
2017-Aug-15 04:59N 53°54' E 011°28'0 0.0
2017-Aug-15 04:29N 53°54' E 011°28'0 0.0
2017-Aug-15 03:59N 53°54' E 011°28'0 0.0
2017-Aug-15 03:29N 53°54' E 011°28'0 0.0
2017-Aug-15 02:59N 53°54' E 011°28'0 0.0
2017-Aug-15 02:29N 53°54' E 011°28'0 0.0
2017-Aug-15 01:59N 53°54' E 011°28'0 0.0
2017-Aug-15 01:29N 53°54' E 011°28'0 0.0
2017-Aug-15 00:59N 53°54' E 011°28'0 0.0
2017-Aug-15 00:29N 53°54' E 011°28'0 0.0
2017-Aug-14 23:59N 53°54' E 011°28'0 0.0
2017-Aug-14 23:29N 53°54' E 011°28'0 0.0
2017-Aug-14 22:59N 53°54' E 011°28'0 0.0
2017-Aug-14 22:29N 53°54' E 011°28'0 0.0
2017-Aug-14 21:59N 53°54' E 011°28'0 0.0
2017-Aug-14 21:29N 53°54' E 011°28'0 0.0
2017-Aug-14 20:59N 53°54' E 011°28'0 0.0
2017-Aug-14 20:29N 53°54' E 011°28'0 0.0
2017-Aug-14 19:59N 53°54' E 011°28'0 0.0
2017-Aug-14 19:29N 53°54' E 011°28'0 0.0
2017-Aug-14 18:59N 53°54' E 011°28'0 0.0
2017-Aug-14 18:29N 53°54' E 011°28'0 0.0
2017-Aug-14 17:59N 53°54' E 011°28'0 0.0
2017-Aug-14 17:29N 53°54' E 011°28'0 0.0
2017-Aug-14 16:59N 53°54' E 011°28'0 0.0
2017-Aug-14 16:29N 53°54' E 011°28'0 0.0
2017-Aug-14 15:59N 53°54' E 011°28'0 0.0
2017-Aug-14 15:29N 53°54' E 011°28'0 0.0
2017-Aug-14 14:59N 53°54' E 011°28'0 0.0
2017-Aug-14 14:29N 53°54' E 011°28'0 0.0
2017-Aug-14 13:59N 53°54' E 011°28'0 0.0
2017-Aug-14 13:26N 53°54' E 011°28'0 0.0
2017-Aug-14 12:56N 53°54' E 011°28'0 0.0
2017-Aug-14 12:29N 53°54' E 011°28'0 0.0
2017-Aug-14 11:59N 53°54' E 011°28'0 0.0
2017-Aug-14 11:29N 53°54' E 011°28'0 0.0
2017-Aug-14 10:59N 53°54' E 011°28'0 0.0
2017-Aug-14 10:29N 53°54' E 011°28'0 0.0
2017-Aug-14 09:59N 53°54' E 011°28'0 0.0
2017-Aug-14 09:29N 53°54' E 011°28'0 0.0
2017-Aug-14 08:59N 53°54' E 011°28'0 0.0
2017-Aug-14 08:29N 53°54' E 011°28'0 0.0
2017-Aug-14 07:59N 53°54' E 011°28'0 0.0
2017-Aug-14 07:29N 53°54' E 011°28'0 0.0
2017-Aug-14 06:59N 53°54' E 011°28'0 0.0
2017-Aug-14 06:29N 53°54' E 011°28'0 0.0
2017-Aug-14 05:59N 53°54' E 011°28'0 0.0
2017-Aug-14 05:29N 53°54' E 011°28'0 0.0
2017-Aug-14 04:59N 53°54' E 011°28'0 0.0
2017-Aug-14 04:29N 53°54' E 011°28'0 0.0
2017-Aug-14 03:59N 53°54' E 011°28'0 0.0
2017-Aug-14 03:26N 53°54' E 011°28'0 0.0
2017-Aug-14 02:59N 53°54' E 011°28'0 0.0
2017-Aug-14 02:29N 53°54' E 011°28'0 0.0
2017-Aug-14 01:59N 53°54' E 011°28'0 0.0
2017-Aug-14 01:29N 53°54' E 011°28'0 0.0
2017-Aug-14 00:59N 53°54' E 011°28'0 0.0
2017-Aug-14 00:29N 53°54' E 011°28'0 0.0
2017-Aug-13 23:59N 53°54' E 011°28'0 0.0
2017-Aug-13 23:29N 53°54' E 011°28'0 0.0
2017-Aug-13 22:59N 53°54' E 011°28'0 0.0
2017-Aug-13 22:29N 53°54' E 011°28'0 0.0
2017-Aug-13 21:59N 53°54' E 011°28'0 0.0
2017-Aug-13 21:29N 53°54' E 011°28'0 0.0
2017-Aug-13 20:59N 53°54' E 011°28'0 0.0
2017-Aug-13 20:29N 53°54' E 011°28'0 0.0
2017-Aug-13 19:53N 53°54' E 011°28'0 0.0
2017-Aug-13 19:29N 53°54' E 011°28'0 0.0
2017-Aug-13 18:59N 53°54' E 011°28'0 0.0
2017-Aug-13 18:29N 53°54' E 011°28'0 0.0
2017-Aug-13 17:59N 53°54' E 011°28'0 0.0
2017-Aug-13 17:29N 53°54' E 011°28'0 0.0
2017-Aug-13 16:59N 53°54' E 011°28'0 0.0
2017-Aug-13 16:29N 53°54' E 011°28'0 0.0
2017-Aug-13 15:59N 53°54' E 011°28'0 0.0
2017-Aug-13 15:29N 53°54' E 011°28'0 0.0
2017-Aug-13 14:59N 53°54' E 011°28'1 1.4
2017-Aug-13 14:31N 53°54' E 011°27'5 9.3
2017-Aug-13 14:00N 53°58' E 011°22'4 7.9
2017-Aug-13 13:31N 54°02' E 011°24'510.2
2017-Aug-13 13:00N 54°06' E 011°28'611.4
2017-Aug-13 12:31N 54°10' E 011°35'1411.2
2017-Aug-13 11:18N 54°18' E 011°54'310.8
2017-Aug-13 11:01N 54°20' E 011°58'611.0
2017-Aug-13 10:30N 54°23' E 012°06'1411.0
2017-Aug-13 09:17N 54°35' E 012°15'311.0
2017-Aug-13 09:00N 54°38' E 012°18'611.3
2017-Aug-13 08:31N 54°41' E 012°26'4111.1
2017-Aug-13 04:48N 54°57' E 013°32'310.8
2017-Aug-13 04:30N 54°58' E 013°37'510.8
2017-Aug-13 04:00N 54°60' E 013°46'510.8
2017-Aug-13 03:30N 55°02' E 013°55'510.5
2017-Aug-13 03:00N 55°03' E 014°03'510.0
2017-Aug-13 02:30N 55°07' E 014°10'510.3
2017-Aug-13 02:00N 55°11' E 014°15'510.3
2017-Aug-13 01:30N 55°15' E 014°20'510.4
2017-Aug-13 01:00N 55°19' E 014°25'510.4
2017-Aug-13 00:30N 55°23' E 014°31'510.7
2017-Aug-13 00:00N 55°27' E 014°39'511.0
2017-Aug-12 23:30N 55°30' E 014°47'510.8
2017-Aug-12 23:00N 55°32' E 014°55'510.7
2017-Aug-12 22:30N 55°35' E 015°03'510.6
2017-Aug-12 22:00N 55°38' E 015°11'15810.4
2017-Aug-12 06:46N 57°44' E 018°05'311.9
2017-Aug-12 06:30N 57°46' E 018°08'611.8
2017-Aug-12 06:00N 57°51' E 018°15'611.6
2017-Aug-12 05:30N 57°55' E 018°22'611.7
2017-Aug-12 05:00N 58°00' E 018°29'611.7
2017-Aug-12 04:30N 58°05' E 018°36'611.8
2017-Aug-12 04:00N 58°09' E 018°43'611.9
2017-Aug-12 03:30N 58°14' E 018°50'611.5
2017-Aug-12 03:00N 58°18' E 018°57'611.5
2017-Aug-12 02:30N 58°23' E 019°03'611.4
2017-Aug-12 02:00N 58°27' E 019°10'611.5
2017-Aug-12 01:30N 58°31' E 019°18'611.5
2017-Aug-12 01:00N 58°36' E 019°25'611.4
2017-Aug-12 00:30N 58°40' E 019°33'611.5
2017-Aug-12 00:00N 58°44' E 019°40'611.5
2017-Aug-11 23:30N 58°49' E 019°47'611.6
2017-Aug-11 23:00N 58°53' E 019°54'611.6
2017-Aug-11 22:30N 58°57' E 020°02'611.6
2017-Aug-11 22:00N 59°02' E 020°09'611.4
2017-Aug-11 21:30N 59°06' E 020°17'611.4
2017-Aug-11 21:00N 59°10' E 020°24'611.6
2017-Aug-11 20:30N 59°15' E 020°31'611.1
2017-Aug-11 20:00N 59°19' E 020°38'612.0
2017-Aug-11 19:30N 59°23' E 020°46'611.6
2017-Aug-11 19:00N 59°28' E 020°54'510.3
2017-Aug-11 18:31N 59°31' E 021°01'510.7
2017-Aug-11 18:01N 59°35' E 021°08'611.3
2017-Aug-11 17:31N 59°39' E 021°15'611.1
2017-Aug-11 17:00N 59°44' E 021°20'510.7
2017-Aug-11 16:31N 59°50' E 021°22'611.0
2017-Aug-11 16:01N 59°53' E 021°31'612.4
2017-Aug-11 15:30N 59°57' E 021°40'510.7
2017-Aug-11 15:00N 60°02' E 021°41'5 9.6
2017-Aug-11 14:30N 60°07' E 021°41'10 9.9
2017-Aug-11 13:30N 60°15' E 021°53'510.7
2017-Aug-11 13:00N 60°18' E 022°02'510.8
2017-Aug-11 12:30N 60°23' E 022°06'4 8.8
2017-Aug-11 12:00N 60°26' E 022°13'0 0.0
2017-Aug-11 11:29N 60°26' E 022°13'0 0.0
2017-Aug-11 11:00N 60°26' E 022°13'0 0.0
2017-Aug-11 10:29N 60°26' E 022°13'0 0.0
2017-Aug-11 09:56N 60°26' E 022°13'0 0.0
2017-Aug-11 09:23N 60°26' E 022°13'0 0.0
2017-Aug-11 08:56N 60°26' E 022°13'0 0.0
2017-Aug-11 08:26N 60°26' E 022°13'0 0.0
2017-Aug-11 07:56N 60°26' E 022°13'0 0.0
2017-Aug-11 07:26N 60°26' E 022°13'0 0.0
2017-Aug-11 06:59N 60°26' E 022°13'0 0.0
2017-Aug-11 06:26N 60°26' E 022°13'0 0.0
2017-Aug-11 05:59N 60°26' E 022°13'0 0.0
2017-Aug-11 05:29N 60°26' E 022°13'0 0.0
2017-Aug-11 04:56N 60°26' E 022°13'0 0.0
2017-Aug-11 04:29N 60°26' E 022°13'0 0.0
2017-Aug-11 03:59N 60°26' E 022°13'0 0.0
2017-Aug-11 03:29N 60°26' E 022°13'0 0.0
2017-Aug-11 02:56N 60°26' E 022°13'0 0.0
2017-Aug-11 02:29N 60°26' E 022°13'0 0.0
2017-Aug-11 01:56N 60°26' E 022°13'0 0.0
2017-Aug-11 01:26N 60°26' E 022°13'0 0.0
2017-Aug-11 00:59N 60°26' E 022°13'0 0.0
2017-Aug-11 00:29N 60°26' E 022°13'0 0.0
2017-Aug-10 23:59N 60°26' E 022°13'0 0.2
2017-Aug-10 23:30N 60°26' E 022°13'3 5.4
2017-Aug-10 23:00N 60°25' E 022°08'611.1
2017-Aug-10 22:30N 60°20' E 022°04'510.8
2017-Aug-10 22:00N 60°16' E 021°56'611.5
2017-Aug-10 21:30N 60°14' E 021°45'510.0
2017-Aug-10 21:00N 60°09' E 021°42'510.9
2017-Aug-10 20:30N 60°04' E 021°41'611.3
2017-Aug-10 20:00N 59°58' E 021°42'611.3
2017-Aug-10 19:30N 59°54' E 021°34'611.4
2017-Aug-10 19:00N 59°51' E 021°25'510.1
2017-Aug-10 18:30N 59°46' E 021°21'510.5
2017-Aug-10 18:00N 59°41' E 021°18'511.0
2017-Aug-10 17:30N 59°37' E 021°11'611.2
2017-Aug-10 17:00N 59°33' E 021°04'611.5
2017-Aug-10 16:30N 59°29' E 020°56'611.6
2017-Aug-10 16:00N 59°24' E 020°48'611.5
2017-Aug-10 15:30N 59°20' E 020°41'611.5
2017-Aug-10 15:00N 59°16' E 020°33'611.7
2017-Aug-10 14:30N 59°12' E 020°25'611.7
2017-Aug-10 14:00N 59°07' E 020°18'611.5
2017-Aug-10 13:30N 59°03' E 020°10'611.6
2017-Aug-10 13:00N 58°59' E 020°03'611.5
2017-Aug-10 12:30N 58°55' E 019°55'611.5
2017-Aug-10 12:00N 58°50' E 019°47'711.5
2017-Aug-10 11:24N 58°45' E 019°38'711.4
2017-Aug-10 10:45N 58°40' E 019°28'411.6
2017-Aug-10 10:24N 58°37' E 019°23'511.6
2017-Aug-10 10:00N 58°34' E 019°17'611.6
2017-Aug-10 09:30N 58°29' E 019°10'611.7
2017-Aug-10 09:00N 58°25' E 019°02'611.7
2017-Aug-10 08:30N 58°20' E 018°56'711.6
2017-Aug-10 07:56N 58°15' E 018°48'811.2
2017-Aug-10 07:14N 58°09' E 018°39'311.0
2017-Aug-10 07:00N 58°06' E 018°36'16711.0
2017-Aug-09 15:50N 55°46' E 015°51'411.4
2017-Aug-09 15:29N 55°44' E 015°45'511.5
2017-Aug-09 15:00N 55°41' E 015°36'611.8
2017-Aug-09 14:29N 55°39' E 015°27'711.8
2017-Aug-09 13:55N 55°35' E 015°16'511.6
2017-Aug-09 13:30N 55°33' E 015°09'611.6
2017-Aug-09 13:00N 55°30' E 015°00'611.6
2017-Aug-09 12:30N 55°27' E 014°52'611.5
2017-Aug-09 12:00N 55°24' E 014°43'611.1
2017-Aug-09 11:30N 55°21' E 014°35'611.3
2017-Aug-09 11:00N 55°16' E 014°29'611.2
2017-Aug-09 10:30N 55°12' E 014°23'611.3
2017-Aug-09 10:00N 55°07' E 014°17'611.4
2017-Aug-09 09:30N 55°03' E 014°10'611.5
2017-Aug-09 09:00N 55°00' E 014°02'611.6
2017-Aug-09 08:30N 54°58' E 013°52'611.7
2017-Aug-09 07:59N 54°56' E 013°42'611.7
2017-Aug-09 07:30N 54°54' E 013°33'611.3
2017-Aug-09 07:00N 54°52' E 013°24'4 7.6
2017-Aug-09 06:30N 54°51' E 013°17'10 8.4
2017-Aug-09 05:18N 54°47' E 013°02'310.3
2017-Aug-09 05:00N 54°45' E 012°57'710.3
2017-Aug-09 04:19N 54°42' E 012°46'310.2
2017-Aug-09 04:00N 54°40' E 012°42'1010.4
2017-Aug-09 03:03N 54°35' E 012°27'010.4
2017-Aug-09 03:00N 54°35' E 012°26'610.5
2017-Aug-09 02:28N 54°32' E 012°18'13 9.0
2017-Aug-09 01:02N 54°25' E 011°60'0 9.8
2017-Aug-09 01:00N 54°25' E 011°59'5 9.7
2017-Aug-09 00:30N 54°25' E 011°51'5 9.7
2017-Aug-09 00:00N 54°26' E 011°43'5 9.8
2017-Aug-08 23:30N 54°28' E 011°35'5 9.7
2017-Aug-08 23:00N 54°30' E 011°28'5 9.4
2017-Aug-08 22:30N 54°32' E 011°21'5 9.1
2017-Aug-08 22:00N 54°34' E 011°13'4 9.0
2017-Aug-08 21:30N 54°35' E 011°06'5 9.8
2017-Aug-08 21:00N 54°36' E 010°58'510.2
2017-Aug-08 20:30N 54°37' E 010°49'510.1
2017-Aug-08 20:00N 54°38' E 010°40'510.0
2017-Aug-08 19:30N 54°39' E 010°32'5 9.6
2017-Aug-08 19:00N 54°40' E 010°24'5 9.6
2017-Aug-08 18:30N 54°43' E 010°18'510.1
2017-Aug-08 18:00N 54°48' E 010°13'  

Dump ship's entire track history